Pendleton, South Carolina
Current Conditions -  °F | °C
As of 5:54 PM on Friday 19 Dec 2014 (Local Time) from KCEU Reporting Station
Clear Clear  
Wind Chill: 12°   Ceiling: Unl
Heat Index: 12°   Visibility: 10mi
Dew Point:   Wind: 3mph
Humidity: 45%   Direction: 230°SW
Pressure: 30.12"   Gusts: NA
Location:  34.65°N, 82.78°W
Report Text: KCEU 192254Z AUTO 23003KT 10SM CLR 12/01 A3012 RMK AO2 SLP200 T01220006
Loading
Personal Weather Stations






























Interactive Weather Map New forecast layout! Learn more

10-Day Weather Forecast

Advertisements
Track Severe Weather on mobile